VOBM

Belgaum Airport

Belgaum, India
TAF VOBM 212300Z 2200/2209 11010KT 6000 NSC TEMPO 2200/2203 5000 BR FEW010
Issued Valid From Valid To
Jan-21 @ 23:00 UTC
(2 hours ago)
Jan-22 @ 00:00 UTC
(34 minutes ago)
Jan-22 @ 09:00 UTC
(in 8 hours)
Jan-22 @ 00:00 to Jan-22 @ 09:00
TAF VOBM 212300Z 2200/2209 11010KT 6000 NSC
Wind Visibility Clouds
110° at 10 knots 6,003 meters
  • No significant clouds
Temporary Jan-22 @ 00:00 to Jan-22 @ 03:00
TEMPO 2200/2203 5000 BR FEW010
Visibility Clouds Conditions
5,005 meters
  • Few at 1,000' AGL
  • Mist
TAF VOBM 212300Z 2200/2209 11010KT 6000 NSC TEMPO 2200/2203 5000 BR FEW010
Issued Jan-21 @ 23:00 UTC
(2 hours ago)
Valid From Jan-22 @ 00:00 UTC
(34 minutes ago)
Valid To Jan-22 @ 09:00 UTC
(in 8 hours)
Jan-22 @ 00:00 - Jan-22 @ 09:00
Wind Visibility
110° at 10 knots 6,003 meters
Clouds
  • No significant clouds
Temporary Jan-22 @ 00:00 - Jan-22 @ 03:00
Clouds
  • Few at 1,000' AGL
Conditions
  • Mist